VVDNVVCR

Guest
Details From VVDN - DANANG INTL
To VVCR - CAM RANH
Flight Number -
Tags decoded
Created
Modified
Stats Distance 253 nm / 468 km
Max Altitude 0 ft / 0 m
Waypoints 4
Social Downloads 0
Likes 0
Share VATSIM

Download

Looking for another format? Having issues loading an existing format? Contact us
Advertisement - Login to hide

Notes

Requested: VVDN PCA W NG VVCR

Route

VVDN PCA NG VVCR

ID Type Via Altitude Latitude Longitude Leg Dist Tot Dist Heading (true) Name
O VVDN APT - 0 ft / 0 m 16.04390˚ 108.19940˚ - 0 nm - DANANG INTL
PCA VOR - 0 ft / 0 m 13.95722˚ 109.04250˚ 134 nm 134 nm 159° / 159° PHUCAT VOR-DME
NG NDB - 0 ft / 0 m 12.22639˚ 109.20111˚ 104 nm 238 nm 175° / 175° NHATRANG NDB
O VVCR APT - 0 ft / 0 m 11.99813˚ 109.21934˚ 13 nm 252 nm 176° / 176° CAM RANH

Altitude Profile

Advertisement - Login to hide

Weather


0- 5 10 15 20 25 30 35+ Temperature / ° C

Clouds and Precipitation
Forecast for 2017-12-18 12:00 UTC. Updated 9 minutes ago

Ground ~20,000 ft ~40,000 ft Winds

VVDN

Details ICAO VVDN (DAD)
Name DANANG INTL
Region Vietnam
Timezone Asia/Ho_Chi_Minh (UTC+7.0)
Stats Elevation 33 ft / 10 m (AMSL)
Location 16.043901° 108.199400°
Runways 2
Magnetic Variation 1.174° W

METAR

VVDN 181100Z 35012KT 8000 SCT013 19/13 Q1022 NOSIG

Decode

TAF

TAF VVDN 180500Z 1806/1906 34010KT 8000 SCT013 BKN050 PROB40 TEMPO 1806/1812 4000 RA BR TEMPO 1820/1902 4000 RA BR

Decode

Departure Runways

ID Width Length Bearing (true) Bearing (mag) Surface Threshold Offset Overrun Length
17L 148 ft / 45 m 10,053 ft / 3,064 m 172.06° 173.23° Asphalt 0 ft / 0 m 1,000 ft / 305 m
17R 148 ft / 45 m 10,052 ft / 3,064 m 172.06° 173.23° Asphalt 0 ft / 0 m 1,000 ft / 305 m
35L 148 ft / 45 m 10,052 ft / 3,064 m 352.06° 353.23° Asphalt 0 ft / 0 m 1,000 ft / 305 m
35R 148 ft / 45 m 10,053 ft / 3,064 m 352.06° 353.23° Asphalt 0 ft / 0 m 1,000 ft / 305 m

VVCR

Details ICAO VVCR (CXR)
Name CAM RANH
Region Vietnam
Timezone Asia/Ho_Chi_Minh (UTC+7.0)
Stats Elevation 40 ft / 12 m (AMSL)
Location 11.998129° 109.219343°
Runways 1
Magnetic Variation 0.768° W

METAR

VVCR 181100Z 03019KT 9999 FEW015 SCT050 24/15 Q1016 NOSIG

Decode

TAF

Not found

Destination Runways

ID Width Length Bearing (true) Bearing (mag) Surface Threshold Offset Overrun Length
02 150 ft / 46 m 10,049 ft / 3,063 m 18.73° 19.50° Concrete 0 ft / 0 m 1,000 ft / 305 m
20 150 ft / 46 m 10,049 ft / 3,063 m 198.73° 199.50° Concrete 0 ft / 0 m 1,000 ft / 305 m

Popular Alternatives